sensor_id;sensor_type;location;lat;lon;timestamp;temperature;humidity
67279;DHT22;54193;53.746;10.058;2023-01-30T00:02:13;3.86;93.63
67279;DHT22;54193;53.746;10.058;2023-01-30T00:04:58;3.85;93.68
67279;DHT22;54193;53.746;10.058;2023-01-30T00:07:46;3.90;93.71
67279;DHT22;54193;53.746;10.058;2023-01-30T00:10:32;3.94;93.53
67279;DHT22;54193;53.746;10.058;2023-01-30T00:13:17;3.96;93.66
67279;DHT22;54193;53.746;10.058;2023-01-30T00:16:03;3.96;93.64
67279;DHT22;54193;53.746;10.058;2023-01-30T00:18:49;3.96;93.63
67279;DHT22;54193;53.746;10.058;2023-01-30T00:21:35;4.01;93.58
67279;DHT22;54193;53.746;10.058;2023-01-30T00:24:20;3.97;93.60
67279;DHT22;54193;53.746;10.058;2023-01-30T00:27:06;4.04;93.60
67279;DHT22;54193;53.746;10.058;2023-01-30T00:29:51;4.00;93.69
67279;DHT22;54193;53.746;10.058;2023-01-30T00:32:37;4.04;93.66
67279;DHT22;54193;53.746;10.058;2023-01-30T00:35:23;4.04;93.67
67279;DHT22;54193;53.746;10.058;2023-01-30T00:38:13;4.04;93.67
67279;DHT22;54193;53.746;10.058;2023-01-30T00:40:59;4.04;93.74
67279;DHT22;54193;53.746;10.058;2023-01-30T00:43:45;4.08;93.76
67279;DHT22;54193;53.746;10.058;2023-01-30T00:46:49;4.07;93.85
67279;DHT22;54193;53.746;10.058;2023-01-30T00:49:50;4.11;93.82
67279;DHT22;54193;53.746;10.058;2023-01-30T00:52:35;4.10;93.84
67279;DHT22;54193;53.746;10.058;2023-01-30T00:55:21;4.08;93.90
67279;DHT22;54193;53.746;10.058;2023-01-30T00:58:06;4.15;93.93
67279;DHT22;54193;53.746;10.058;2023-01-30T01:00:52;4.20;93.93
67279;DHT22;54193;53.746;10.058;2023-01-30T01:03:38;4.20;94.02
67279;DHT22;54193;53.746;10.058;2023-01-30T01:06:24;4.20;93.99
67279;DHT22;54193;53.746;10.058;2023-01-30T01:09:09;4.24;94.11
67279;DHT22;54193;53.746;10.058;2023-01-30T01:11:55;4.24;94.12
67279;DHT22;54193;53.746;10.058;2023-01-30T01:14:41;4.25;94.16
67279;DHT22;54193;53.746;10.058;2023-01-30T01:17:26;4.30;94.11
67279;DHT22;54193;53.746;10.058;2023-01-30T01:20:13;4.30;94.25
67279;DHT22;54193;53.746;10.058;2023-01-30T01:22:59;4.33;94.31
67279;DHT22;54193;53.746;10.058;2023-01-30T01:25:44;4.35;94.22
67279;DHT22;54193;53.746;10.058;2023-01-30T01:28:30;4.38;94.24
67279;DHT22;54193;53.746;10.058;2023-01-30T01:31:16;4.40;94.23
67279;DHT22;54193;53.746;10.058;2023-01-30T01:34:01;4.44;94.37
67279;DHT22;54193;53.746;10.058;2023-01-30T01:36:48;4.45;94.44
67279;DHT22;54193;53.746;10.058;2023-01-30T01:39:34;4.46;94.55
67279;DHT22;54193;53.746;10.058;2023-01-30T01:42:38;4.49;94.66
67279;DHT22;54193;53.746;10.058;2023-01-30T01:45:24;4.52;94.69
67279;DHT22;54193;53.746;10.058;2023-01-30T01:49:04;4.48;94.77
67279;DHT22;54193;53.746;10.058;2023-01-30T01:51:50;4.52;94.83
67279;DHT22;54193;53.746;10.058;2023-01-30T01:54:43;4.55;94.91
67279;DHT22;54193;53.746;10.058;2023-01-30T01:57:41;4.58;94.79
67279;DHT22;54193;53.746;10.058;2023-01-30T02:00:30;4.59;94.86
67279;DHT22;54193;53.746;10.058;2023-01-30T02:03:19;4.63;94.84
67279;DHT22;54193;53.746;10.058;2023-01-30T02:06:06;4.69;94.83
67279;DHT22;54193;53.746;10.058;2023-01-30T02:08:56;4.68;94.93
67279;DHT22;54193;53.746;10.058;2023-01-30T02:11:52;4.68;94.96
67279;DHT22;54193;53.746;10.058;2023-01-30T02:14:39;4.66;94.99
67279;DHT22;54193;53.746;10.058;2023-01-30T02:17:25;4.72;95.02
67279;DHT22;54193;53.746;10.058;2023-01-30T02:20:22;4.75;95.06
67279;DHT22;54193;53.746;10.058;2023-01-30T02:26:29;4.76;95.04
67279;DHT22;54193;53.746;10.058;2023-01-30T02:44:33;4.89;94.99
67279;DHT22;54193;53.746;10.058;2023-01-30T02:47:29;4.90;95.13
67279;DHT22;54193;53.746;10.058;2023-01-30T02:50:20;4.94;95.11
67279;DHT22;54193;53.746;10.058;2023-01-30T02:53:07;4.96;95.17
67279;DHT22;54193;53.746;10.058;2023-01-30T02:55:53;4.97;95.21
67279;DHT22;54193;53.746;10.058;2023-01-30T02:58:47;5.03;95.12
67279;DHT22;54193;53.746;10.058;2023-01-30T03:11:10;5.11;95.26
67279;DHT22;54193;53.746;10.058;2023-01-30T03:16:54;5.20;95.27
67279;DHT22;54193;53.746;10.058;2023-01-30T03:19:42;5.20;95.30
67279;DHT22;54193;53.746;10.058;2023-01-30T03:22:27;5.20;95.37
67279;DHT22;54193;53.746;10.058;2023-01-30T03:25:17;5.26;95.43
67279;DHT22;54193;53.746;10.058;2023-01-30T03:28:04;5.27;95.46
67279;DHT22;54193;53.746;10.058;2023-01-30T03:30:50;5.30;95.43
67279;DHT22;54193;53.746;10.058;2023-01-30T03:33:35;5.31;95.47
67279;DHT22;54193;53.746;10.058;2023-01-30T03:36:21;5.34;95.53
67279;DHT22;54193;53.746;10.058;2023-01-30T03:39:07;5.34;95.50
67279;DHT22;54193;53.746;10.058;2023-01-30T03:41:53;5.35;95.52
67279;DHT22;54193;53.746;10.058;2023-01-30T03:44:38;5.38;95.54
67279;DHT22;54193;53.746;10.058;2023-01-30T03:47:24;5.41;95.69
67279;DHT22;54193;53.746;10.058;2023-01-30T03:50:10;5.32;95.50
67279;DHT22;54193;53.746;10.058;2023-01-30T03:52:55;5.28;95.31
67279;DHT22;54193;53.746;10.058;2023-01-30T03:55:43;5.18;94.99
67279;DHT22;54193;53.746;10.058;2023-01-30T03:58:28;5.13;94.68
67279;DHT22;54193;53.746;10.058;2023-01-30T04:01:14;5.09;94.65
67279;DHT22;54193;53.746;10.058;2023-01-30T04:04:00;5.06;94.69
67279;DHT22;54193;53.746;10.058;2023-01-30T04:06:45;4.96;94.43
67279;DHT22;54193;53.746;10.058;2023-01-30T04:09:31;4.90;94.39
67279;DHT22;54193;53.746;10.058;2023-01-30T04:12:17;4.90;94.26
67279;DHT22;54193;53.746;10.058;2023-01-30T04:15:02;4.84;94.40
67279;DHT22;54193;53.746;10.058;2023-01-30T04:17:48;4.83;94.44
67279;DHT22;54193;53.746;10.058;2023-01-30T04:20:34;4.76;94.52
67279;DHT22;54193;53.746;10.058;2023-01-30T04:23:19;4.73;94.53
67279;DHT22;54193;53.746;10.058;2023-01-30T04:26:06;4.71;94.66
67279;DHT22;54193;53.746;10.058;2023-01-30T04:28:51;4.66;94.53
67279;DHT22;54193;53.746;10.058;2023-01-30T04:31:37;4.63;94.38
67279;DHT22;54193;53.746;10.058;2023-01-30T04:34:23;4.58;94.42
67279;DHT22;54193;53.746;10.058;2023-01-30T04:37:08;4.53;94.44
67279;DHT22;54193;53.746;10.058;2023-01-30T04:39:54;4.53;94.27
67279;DHT22;54193;53.746;10.058;2023-01-30T04:42:39;4.53;94.44
67279;DHT22;54193;53.746;10.058;2023-01-30T04:45:25;4.49;94.35
67279;DHT22;54193;53.746;10.058;2023-01-30T04:48:11;4.49;94.53
67279;DHT22;54193;53.746;10.058;2023-01-30T04:50:57;4.48;94.64
67279;DHT22;54193;53.746;10.058;2023-01-30T04:53:42;4.49;94.65
67279;DHT22;54193;53.746;10.058;2023-01-30T04:56:28;4.49;94.68
67279;DHT22;54193;53.746;10.058;2023-01-30T04:59:14;4.46;94.78
67279;DHT22;54193;53.746;10.058;2023-01-30T05:01:59;4.52;94.84
67279;DHT22;54193;53.746;10.058;2023-01-30T05:04:48;4.56;94.83
67279;DHT22;54193;53.746;10.058;2023-01-30T05:07:33;4.56;94.86
67279;DHT22;54193;53.746;10.058;2023-01-30T05:10:19;4.61;94.88
67279;DHT22;54193;53.746;10.058;2023-01-30T05:13:05;4.61;94.89
67279;DHT22;54193;53.746;10.058;2023-01-30T05:15:51;4.58;94.92
67279;DHT22;54193;53.746;10.058;2023-01-30T05:18:36;4.65;94.88
67279;DHT22;54193;53.746;10.058;2023-01-30T05:21:24;4.72;94.87
67279;DHT22;54193;53.746;10.058;2023-01-30T05:24:10;4.77;94.79
67279;DHT22;54193;53.746;10.058;2023-01-30T05:26:56;4.82;94.83
67279;DHT22;54193;53.746;10.058;2023-01-30T05:29:41;4.84;94.81
67279;DHT22;54193;53.746;10.058;2023-01-30T05:32:27;4.84;94.71
67279;DHT22;54193;53.746;10.058;2023-01-30T05:35:15;4.89;94.62
67279;DHT22;54193;53.746;10.058;2023-01-30T05:38:00;4.92;94.66
67279;DHT22;54193;53.746;10.058;2023-01-30T05:40:46;4.94;94.61
67279;DHT22;54193;53.746;10.058;2023-01-30T05:43:33;4.96;94.50
67279;DHT22;54193;53.746;10.058;2023-01-30T05:46:19;4.93;94.33
67279;DHT22;54193;53.746;10.058;2023-01-30T05:49:05;4.84;94.15
67279;DHT22;54193;53.746;10.058;2023-01-30T05:51:51;4.77;94.28
67279;DHT22;54193;53.746;10.058;2023-01-30T05:54:37;4.75;94.27
67279;DHT22;54193;53.746;10.058;2023-01-30T05:57:23;4.69;94.25
67279;DHT22;54193;53.746;10.058;2023-01-30T06:00:09;4.71;94.25
67279;DHT22;54193;53.746;10.058;2023-01-30T06:02:55;4.69;94.25
67279;DHT22;54193;53.746;10.058;2023-01-30T06:05:40;4.71;94.09
67279;DHT22;54193;53.746;10.058;2023-01-30T06:08:26;4.63;94.11
67279;DHT22;54193;53.746;10.058;2023-01-30T06:11:14;4.53;94.21
67279;DHT22;54193;53.746;10.058;2023-01-30T06:13:59;4.48;94.13
67279;DHT22;54193;53.746;10.058;2023-01-30T06:16:45;4.38;94.28
67279;DHT22;54193;53.746;10.058;2023-01-30T06:19:30;4.34;94.38
67279;DHT22;54193;53.746;10.058;2023-01-30T06:22:16;4.34;94.41
67279;DHT22;54193;53.746;10.058;2023-01-30T06:25:02;4.33;94.43
67279;DHT22;54193;53.746;10.058;2023-01-30T06:27:48;4.24;94.49
67279;DHT22;54193;53.746;10.058;2023-01-30T06:30:33;4.20;94.58
67279;DHT22;54193;53.746;10.058;2023-01-30T06:33:19;4.21;94.61
67279;DHT22;54193;53.746;10.058;2023-01-30T06:36:05;4.17;94.58
67279;DHT22;54193;53.746;10.058;2023-01-30T06:38:51;4.28;94.88
67279;DHT22;54193;53.746;10.058;2023-01-30T06:41:36;4.30;94.61
67279;DHT22;54193;53.746;10.058;2023-01-30T06:44:22;4.21;94.68
67279;DHT22;54193;53.746;10.058;2023-01-30T06:47:08;4.25;94.61
67279;DHT22;54193;53.746;10.058;2023-01-30T06:49:53;4.25;94.52
67279;DHT22;54193;53.746;10.058;2023-01-30T06:52:43;4.28;94.53
67279;DHT22;54193;53.746;10.058;2023-01-30T06:55:29;4.31;94.66
67279;DHT22;54193;53.746;10.058;2023-01-30T06:58:18;4.37;94.62
67279;DHT22;54193;53.746;10.058;2023-01-30T07:01:04;4.41;94.37
67279;DHT22;54193;53.746;10.058;2023-01-30T07:03:50;4.33;94.32
67279;DHT22;54193;53.746;10.058;2023-01-30T07:06:36;4.30;94.39
67279;DHT22;54193;53.746;10.058;2023-01-30T07:09:22;4.21;94.16
67279;DHT22;54193;53.746;10.058;2023-01-30T07:12:07;4.28;93.76
67279;DHT22;54193;53.746;10.058;2023-01-30T07:14:53;4.37;92.99
67279;DHT22;54193;53.746;10.058;2023-01-30T07:17:40;4.42;92.78
67279;DHT22;54193;53.746;10.058;2023-01-30T07:20:26;4.45;92.58
67279;DHT22;54193;53.746;10.058;2023-01-30T07:23:11;4.46;91.89
67279;DHT22;54193;53.746;10.058;2023-01-30T07:25:57;4.46;91.80
67279;DHT22;54193;53.746;10.058;2023-01-30T07:28:43;4.48;91.88
67279;DHT22;54193;53.746;10.058;2023-01-30T07:31:28;4.45;91.91
67279;DHT22;54193;53.746;10.058;2023-01-30T07:34:14;4.40;92.00
67279;DHT22;54193;53.746;10.058;2023-01-30T07:36:59;4.35;92.33
67279;DHT22;54193;53.746;10.058;2023-01-30T07:39:45;4.37;92.26
67279;DHT22;54193;53.746;10.058;2023-01-30T07:42:31;4.48;92.34
67279;DHT22;54193;53.746;10.058;2023-01-30T07:45:16;4.61;92.24
67279;DHT22;54193;53.746;10.058;2023-01-30T07:48:02;4.71;92.11
67279;DHT22;54193;53.746;10.058;2023-01-30T07:50:48;4.49;92.04
67279;DHT22;54193;53.746;10.058;2023-01-30T07:53:33;3.96;91.90
67279;DHT22;54193;53.746;10.058;2023-01-30T07:56:19;3.93;92.56
67279;DHT22;54193;53.746;10.058;2023-01-30T07:59:09;3.96;93.17
67279;DHT22;54193;53.746;10.058;2023-01-30T08:01:55;4.03;93.56
67279;DHT22;54193;53.746;10.058;2023-01-30T08:04:43;4.07;93.88
67279;DHT22;54193;53.746;10.058;2023-01-30T08:07:28;4.22;93.78
67279;DHT22;54193;53.746;10.058;2023-01-30T08:10:14;4.30;93.98
67279;DHT22;54193;53.746;10.058;2023-01-30T08:13:00;4.34;93.86
67279;DHT22;54193;53.746;10.058;2023-01-30T08:15:46;4.31;93.76
67279;DHT22;54193;53.746;10.058;2023-01-30T08:18:32;4.27;93.72
67279;DHT22;54193;53.746;10.058;2023-01-30T08:21:18;4.25;93.48
67279;DHT22;54193;53.746;10.058;2023-01-30T08:24:04;4.34;93.55
67279;DHT22;54193;53.746;10.058;2023-01-30T08:26:50;4.45;93.28
67279;DHT22;54193;53.746;10.058;2023-01-30T08:29:36;4.53;93.26
67279;DHT22;54193;53.746;10.058;2023-01-30T08:32:21;4.66;92.79
67279;DHT22;54193;53.746;10.058;2023-01-30T08:35:08;4.72;92.71
67279;DHT22;54193;53.746;10.058;2023-01-30T08:37:53;4.69;92.86
67279;DHT22;54193;53.746;10.058;2023-01-30T08:40:39;4.66;92.98
67279;DHT22;54193;53.746;10.058;2023-01-30T08:43:25;4.69;93.07
67279;DHT22;54193;53.746;10.058;2023-01-30T08:46:11;4.82;92.80
67279;DHT22;54193;53.746;10.058;2023-01-30T08:48:57;4.89;92.66
67279;DHT22;54193;53.746;10.058;2023-01-30T08:51:42;5.00;92.39
67279;DHT22;54193;53.746;10.058;2023-01-30T08:54:28;5.17;92.32
67279;DHT22;54193;53.746;10.058;2023-01-30T08:57:14;5.63;91.49
67279;DHT22;54193;53.746;10.058;2023-01-30T09:00:00;5.59;91.29
67279;DHT22;54193;53.746;10.058;2023-01-30T09:02:45;5.37;91.63
67279;DHT22;54193;53.746;10.058;2023-01-30T09:05:31;5.24;91.62
67279;DHT22;54193;53.746;10.058;2023-01-30T09:08:16;5.31;91.69
67279;DHT22;54193;53.746;10.058;2023-01-30T09:11:03;5.38;91.29
67279;DHT22;54193;53.746;10.058;2023-01-30T09:13:50;5.41;91.08
67279;DHT22;54193;53.746;10.058;2023-01-30T09:16:35;5.39;90.66
67279;DHT22;54193;53.746;10.058;2023-01-30T09:19:25;5.79;90.59
67279;DHT22;54193;53.746;10.058;2023-01-30T09:22:11;5.85;90.20
67279;DHT22;54193;53.746;10.058;2023-01-30T09:24:57;5.82;89.76
67279;DHT22;54193;53.746;10.058;2023-01-30T09:27:46;5.85;90.11
67279;DHT22;54193;53.746;10.058;2023-01-30T09:30:32;5.96;89.79
67279;DHT22;54193;53.746;10.058;2023-01-30T09:33:18;5.93;88.92
67279;DHT22;54193;53.746;10.058;2023-01-30T09:36:05;5.82;88.86
67279;DHT22;54193;53.746;10.058;2023-01-30T09:38:50;5.73;88.55
67279;DHT22;54193;53.746;10.058;2023-01-30T09:45:24;5.83;88.55
67279;DHT22;54193;53.746;10.058;2023-01-30T09:48:26;5.82;88.28
67279;DHT22;54193;53.746;10.058;2023-01-30T09:54:35;5.87;88.95
67279;DHT22;54193;53.746;10.058;2023-01-30T09:57:23;5.73;89.75
67279;DHT22;54193;53.746;10.058;2023-01-30T10:00:16;5.60;89.88
67279;DHT22;54193;53.746;10.058;2023-01-30T10:03:18;5.60;89.50
67279;DHT22;54193;53.746;10.058;2023-01-30T10:06:09;5.67;90.03
67279;DHT22;54193;53.746;10.058;2023-01-30T10:09:10;5.67;89.80
67279;DHT22;54193;53.746;10.058;2023-01-30T10:21:29;5.92;89.67
67279;DHT22;54193;53.746;10.058;2023-01-30T10:27:31;5.70;89.76
67279;DHT22;54193;53.746;10.058;2023-01-30T10:30:17;6.11;89.65
67279;DHT22;54193;53.746;10.058;2023-01-30T10:33:27;6.53;88.39
67279;DHT22;54193;53.746;10.058;2023-01-30T10:36:24;6.65;88.18
67279;DHT22;54193;53.746;10.058;2023-01-30T10:42:51;6.13;87.80
67279;DHT22;54193;53.746;10.058;2023-01-30T10:45:50;6.17;87.14
67279;DHT22;54193;53.746;10.058;2023-01-30T10:49:01;6.20;87.04
67279;DHT22;54193;53.746;10.058;2023-01-30T10:52:26;6.02;87.77
67279;DHT22;54193;53.746;10.058;2023-01-30T10:58:27;5.13;92.19
67279;DHT22;54193;53.746;10.058;2023-01-30T11:01:24;3.54;92.17
67279;DHT22;54193;53.746;10.058;2023-01-30T11:04:26;2.94;93.11
67279;DHT22;54193;53.746;10.058;2023-01-30T11:07:14;2.97;93.81
67279;DHT22;54193;53.746;10.058;2023-01-30T11:10:00;2.93;93.66
67279;DHT22;54193;53.746;10.058;2023-01-30T11:12:45;3.15;93.60
67279;DHT22;54193;53.746;10.058;2023-01-30T11:15:38;3.30;94.01
67279;DHT22;54193;53.746;10.058;2023-01-30T11:18:25;3.43;94.08
67279;DHT22;54193;53.746;10.058;2023-01-30T11:21:28;3.56;93.67
67279;DHT22;54193;53.746;10.058;2023-01-30T11:24:18;3.75;93.69
67279;DHT22;54193;53.746;10.058;2023-01-30T11:27:20;3.91;93.26
67279;DHT22;54193;53.746;10.058;2023-01-30T11:30:14;3.98;92.53
67279;DHT22;54193;53.746;10.058;2023-01-30T11:33:10;4.14;93.02
67279;DHT22;54193;53.746;10.058;2023-01-30T11:35:58;4.24;92.88
67279;DHT22;54193;53.746;10.058;2023-01-30T11:38:55;4.33;92.70
67279;DHT22;54193;53.746;10.058;2023-01-30T11:41:43;4.41;92.85
67279;DHT22;54193;53.746;10.058;2023-01-30T11:44:40;4.48;92.79
67279;DHT22;54193;53.746;10.058;2023-01-30T11:47:27;4.59;92.77
67279;DHT22;54193;53.746;10.058;2023-01-30T11:50:17;4.69;93.37
67279;DHT22;54193;53.746;10.058;2023-01-30T11:53:04;4.72;93.09
67279;DHT22;54193;53.746;10.058;2023-01-30T11:56:03;4.82;92.92
67279;DHT22;54193;53.746;10.058;2023-01-30T11:58:58;4.94;92.44
67279;DHT22;54193;53.746;10.058;2023-01-30T12:01:44;4.99;92.32
67279;DHT22;54193;53.746;10.058;2023-01-30T12:04:30;4.84;92.40
67279;DHT22;54193;53.746;10.058;2023-01-30T12:07:24;4.61;92.24
67279;DHT22;54193;53.746;10.058;2023-01-30T12:13:22;3.86;92.45
67279;DHT22;54193;53.746;10.058;2023-01-30T12:16:19;3.65;92.24
67279;DHT22;54193;53.746;10.058;2023-01-30T12:19:34;3.65;92.24
67279;DHT22;54193;53.746;10.058;2023-01-30T12:22:40;3.59;92.70
67279;DHT22;54193;53.746;10.058;2023-01-30T12:28:42;3.62;92.30
67279;DHT22;54193;53.746;10.058;2023-01-30T12:31:35;3.73;92.66
67279;DHT22;54193;53.746;10.058;2023-01-30T12:34:23;3.82;92.48
67279;DHT22;54193;53.746;10.058;2023-01-30T12:37:41;3.87;92.40
67279;DHT22;54193;53.746;10.058;2023-01-30T12:43:53;4.17;92.73
67279;DHT22;54193;53.746;10.058;2023-01-30T12:46:46;4.35;92.32
67279;DHT22;54193;53.746;10.058;2023-01-30T12:49:55;4.49;91.87
67279;DHT22;54193;53.746;10.058;2023-01-30T12:52:54;4.59;92.08
67279;DHT22;54193;53.746;10.058;2023-01-30T12:58:58;4.76;91.41
67279;DHT22;54193;53.746;10.058;2023-01-30T13:02:15;4.89;90.99
67279;DHT22;54193;53.746;10.058;2023-01-30T13:05:45;4.99;90.65
67279;DHT22;54193;53.746;10.058;2023-01-30T13:18:14;5.75;90.04
67279;DHT22;54193;53.746;10.058;2023-01-30T13:24:18;5.75;88.93
67279;DHT22;54193;53.746;10.058;2023-01-30T13:27:15;5.70;89.28
67279;DHT22;54193;53.746;10.058;2023-01-30T13:30:04;5.55;89.46
67279;DHT22;54193;53.746;10.058;2023-01-30T13:32:56;5.48;90.28
67279;DHT22;54193;53.746;10.058;2023-01-30T13:35:45;5.58;89.95
67279;DHT22;54193;53.746;10.058;2023-01-30T13:38:33;5.63;91.16
67279;DHT22;54193;53.746;10.058;2023-01-30T13:41:21;5.58;89.52
67279;DHT22;54193;53.746;10.058;2023-01-30T13:44:22;5.66;89.35
67279;DHT22;54193;53.746;10.058;2023-01-30T13:47:38;5.66;89.98
67279;DHT22;54193;53.746;10.058;2023-01-30T13:56:44;5.90;87.95
67279;DHT22;54193;53.746;10.058;2023-01-30T14:03:13;5.96;88.52
67279;DHT22;54193;53.746;10.058;2023-01-30T14:06:09;5.93;88.37
67279;DHT22;54193;53.746;10.058;2023-01-30T14:08:56;5.96;88.03
67279;DHT22;54193;53.746;10.058;2023-01-30T14:11:55;5.94;87.95
67279;DHT22;54193;53.746;10.058;2023-01-30T14:14:55;5.97;87.99
67279;DHT22;54193;53.746;10.058;2023-01-30T14:18:04;5.99;88.18
67279;DHT22;54193;53.746;10.058;2023-01-30T14:20:51;5.96;88.73
67279;DHT22;54193;53.746;10.058;2023-01-30T14:24:03;5.97;88.86
67279;DHT22;54193;53.746;10.058;2023-01-30T14:32:34;6.07;87.04
67279;DHT22;54193;53.746;10.058;2023-01-30T14:35:34;6.17;86.93
67279;DHT22;54193;53.746;10.058;2023-01-30T14:38:20;6.16;86.74
67279;DHT22;54193;53.746;10.058;2023-01-30T14:43:52;6.20;85.42
67279;DHT22;54193;53.746;10.058;2023-01-30T14:46:40;6.30;84.80
67279;DHT22;54193;53.746;10.058;2023-01-30T14:49:29;6.31;83.71
67279;DHT22;54193;53.746;10.058;2023-01-30T14:55:20;6.32;83.50
67279;DHT22;54193;53.746;10.058;2023-01-30T14:58:14;6.32;82.06
67279;DHT22;54193;53.746;10.058;2023-01-30T15:01:02;6.34;82.26
67279;DHT22;54193;53.746;10.058;2023-01-30T15:03:49;6.20;83.37
67279;DHT22;54193;53.746;10.058;2023-01-30T15:06:35;6.02;85.13
67279;DHT22;54193;53.746;10.058;2023-01-30T15:09:25;5.99;85.42
67279;DHT22;54193;53.746;10.058;2023-01-30T15:12:31;6.13;82.28
67279;DHT22;54193;53.746;10.058;2023-01-30T15:25:09;6.23;79.53
67279;DHT22;54193;53.746;10.058;2023-01-30T15:28:09;6.13;80.21
67279;DHT22;54193;53.746;10.058;2023-01-30T15:31:12;6.18;79.32
67279;DHT22;54193;53.746;10.058;2023-01-30T15:33:58;6.17;79.17
67279;DHT22;54193;53.746;10.058;2023-01-30T15:36:44;6.23;79.65
67279;DHT22;54193;53.746;10.058;2023-01-30T15:39:30;6.20;79.52
67279;DHT22;54193;53.746;10.058;2023-01-30T15:42:15;6.21;78.34
67279;DHT22;54193;53.746;10.058;2023-01-30T15:48:29;6.16;79.79
67279;DHT22;54193;53.746;10.058;2023-01-30T15:51:22;6.07;81.12
67279;DHT22;54193;53.746;10.058;2023-01-30T15:54:10;6.00;81.24
67279;DHT22;54193;53.746;10.058;2023-01-30T15:56:57;5.99;80.68
67279;DHT22;54193;53.746;10.058;2023-01-30T15:59:44;5.97;80.88
67279;DHT22;54193;53.746;10.058;2023-01-30T16:02:32;5.96;80.59
67279;DHT22;54193;53.746;10.058;2023-01-30T16:05:23;5.86;80.49
67279;DHT22;54193;53.746;10.058;2023-01-30T16:08:18;5.79;80.58
67279;DHT22;54193;53.746;10.058;2023-01-30T16:11:04;5.79;79.80
67279;DHT22;54193;53.746;10.058;2023-01-30T16:13:49;5.79;80.34
67279;DHT22;54193;53.746;10.058;2023-01-30T16:16:35;5.70;81.61
67279;DHT22;54193;53.746;10.058;2023-01-30T16:19:29;5.75;81.41
67279;DHT22;54193;53.746;10.058;2023-01-30T16:22:18;5.63;82.38
67279;DHT22;54193;53.746;10.058;2023-01-30T16:25:18;5.70;82.75
67279;DHT22;54193;53.746;10.058;2023-01-30T16:28:06;5.69;83.20
67279;DHT22;54193;53.746;10.058;2023-01-30T16:31:05;5.72;83.42
67279;DHT22;54193;53.746;10.058;2023-01-30T16:33:51;5.69;84.14
67279;DHT22;54193;53.746;10.058;2023-01-30T16:36:39;5.72;84.19
67279;DHT22;54193;53.746;10.058;2023-01-30T16:39:29;5.69;84.26
67279;DHT22;54193;53.746;10.058;2023-01-30T16:42:26;5.60;83.89
67279;DHT22;54193;53.746;10.058;2023-01-30T16:48:29;5.47;83.68
67279;DHT22;54193;53.746;10.058;2023-01-30T16:51:19;5.31;84.06
67279;DHT22;54193;53.746;10.058;2023-01-30T16:54:16;5.24;83.83
67279;DHT22;54193;53.746;10.058;2023-01-30T16:57:03;5.32;83.46
67279;DHT22;54193;53.746;10.058;2023-01-30T16:59:49;5.27;83.58
67279;DHT22;54193;53.746;10.058;2023-01-30T17:02:38;5.23;84.07
67279;DHT22;54193;53.746;10.058;2023-01-30T17:05:27;5.14;84.48
67279;DHT22;54193;53.746;10.058;2023-01-30T17:14:26;5.17;84.98
67279;DHT22;54193;53.746;10.058;2023-01-30T17:17:12;5.30;84.15
67279;DHT22;54193;53.746;10.058;2023-01-30T17:19:57;5.32;84.06
67279;DHT22;54193;53.746;10.058;2023-01-30T17:22:46;5.38;83.32
67279;DHT22;54193;53.746;10.058;2023-01-30T17:25:35;5.44;82.66
67279;DHT22;54193;53.746;10.058;2023-01-30T17:28:22;5.44;82.23
67279;DHT22;54193;53.746;10.058;2023-01-30T17:31:13;5.42;82.70
67279;DHT22;54193;53.746;10.058;2023-01-30T17:33:58;5.44;82.91
67279;DHT22;54193;53.746;10.058;2023-01-30T17:36:45;5.32;82.44
67279;DHT22;54193;53.746;10.058;2023-01-30T17:39:31;5.30;82.94
67279;DHT22;54193;53.746;10.058;2023-01-30T17:42:17;5.37;81.94
67279;DHT22;54193;53.746;10.058;2023-01-30T17:45:05;5.32;82.29
67279;DHT22;54193;53.746;10.058;2023-01-30T17:47:51;5.32;82.18
67279;DHT22;54193;53.746;10.058;2023-01-30T17:50:37;5.37;82.07
67279;DHT22;54193;53.746;10.058;2023-01-30T17:53:22;5.27;82.71
67279;DHT22;54193;53.746;10.058;2023-01-30T17:56:14;5.16;83.14
67279;DHT22;54193;53.746;10.058;2023-01-30T17:59:06;5.04;84.03
67279;DHT22;54193;53.746;10.058;2023-01-30T18:01:55;5.03;83.98
67279;DHT22;54193;53.746;10.058;2023-01-30T18:04:41;5.00;83.81
67279;DHT22;54193;53.746;10.058;2023-01-30T18:07:28;5.04;83.00
67279;DHT22;54193;53.746;10.058;2023-01-30T18:10:15;5.09;82.19
67279;DHT22;54193;53.746;10.058;2023-01-30T18:13:01;5.16;82.02
67279;DHT22;54193;53.746;10.058;2023-01-30T18:15:47;5.10;81.92
67279;DHT22;54193;53.746;10.058;2023-01-30T18:18:32;5.06;81.32
67279;DHT22;54193;53.746;10.058;2023-01-30T18:21:18;5.13;80.31
67279;DHT22;54193;53.746;10.058;2023-01-30T18:24:06;5.00;80.20
67279;DHT22;54193;53.746;10.058;2023-01-30T18:26:52;4.87;80.88
67279;DHT22;54193;53.746;10.058;2023-01-30T18:29:38;4.80;80.92
67279;DHT22;54193;53.746;10.058;2023-01-30T18:32:23;4.79;80.45
67279;DHT22;54193;53.746;10.058;2023-01-30T18:35:09;4.66;80.87
67279;DHT22;54193;53.746;10.058;2023-01-30T18:37:54;4.63;80.43
67279;DHT22;54193;53.746;10.058;2023-01-30T18:40:40;4.59;80.10
67279;DHT22;54193;53.746;10.058;2023-01-30T18:43:26;4.46;80.66
67279;DHT22;54193;53.746;10.058;2023-01-30T18:46:14;4.45;80.48
67279;DHT22;54193;53.746;10.058;2023-01-30T18:48:59;4.38;80.69
67279;DHT22;54193;53.746;10.058;2023-01-30T18:51:45;4.52;79.96
67279;DHT22;54193;53.746;10.058;2023-01-30T18:54:31;4.48;80.12
67279;DHT22;54193;53.746;10.058;2023-01-30T18:57:17;4.48;80.02
67279;DHT22;54193;53.746;10.058;2023-01-30T19:00:03;4.37;80.42
67279;DHT22;54193;53.746;10.058;2023-01-30T19:02:52;4.41;80.09
67279;DHT22;54193;53.746;10.058;2023-01-30T19:05:37;4.45;79.95
67279;DHT22;54193;53.746;10.058;2023-01-30T19:08:23;4.42;80.42
67279;DHT22;54193;53.746;10.058;2023-01-30T19:11:12;4.42;80.45
67279;DHT22;54193;53.746;10.058;2023-01-30T19:14:17;4.35;80.95
67279;DHT22;54193;53.746;10.058;2023-01-30T19:17:03;4.33;81.15
67279;DHT22;54193;53.746;10.058;2023-01-30T19:19:49;4.31;81.12
67279;DHT22;54193;53.746;10.058;2023-01-30T19:22:34;4.40;80.38
67279;DHT22;54193;53.746;10.058;2023-01-30T19:25:20;4.46;80.21
67279;DHT22;54193;53.746;10.058;2023-01-30T19:28:06;4.45;80.10
67279;DHT22;54193;53.746;10.058;2023-01-30T19:30:51;4.41;79.97
67279;DHT22;54193;53.746;10.058;2023-01-30T19:33:37;4.41;79.18
67279;DHT22;54193;53.746;10.058;2023-01-30T19:36:24;4.41;78.96
67279;DHT22;54193;53.746;10.058;2023-01-30T19:39:10;4.34;78.82
67279;DHT22;54193;53.746;10.058;2023-01-30T19:41:56;4.42;78.12
67279;DHT22;54193;53.746;10.058;2023-01-30T19:44:42;4.31;78.58
67279;DHT22;54193;53.746;10.058;2023-01-30T19:47:27;4.24;79.08
67279;DHT22;54193;53.746;10.058;2023-01-30T19:50:13;4.24;79.38
67279;DHT22;54193;53.746;10.058;2023-01-30T19:52:58;4.22;79.40
67279;DHT22;54193;53.746;10.058;2023-01-30T19:55:50;4.14;80.06